sensor_id;sensor_type;location;lat;lon;timestamp;P1;durP1;ratioP1;P2;durP2;ratioP2
36211;SDS011;22247;48.586;13.492;2023-06-26T00:02:21;11.20;;;7.23;;
36211;SDS011;22247;48.586;13.492;2023-06-26T00:04:46;11.93;;;7.90;;
36211;SDS011;22247;48.586;13.492;2023-06-26T00:07:11;11.55;;;7.55;;
36211;SDS011;22247;48.586;13.492;2023-06-26T00:09:36;12.23;;;8.35;;
36211;SDS011;22247;48.586;13.492;2023-06-26T00:12:04;12.77;;;7.95;;
36211;SDS011;22247;48.586;13.492;2023-06-26T00:14:29;10.35;;;7.10;;
36211;SDS011;22247;48.586;13.492;2023-06-26T00:16:54;12.80;;;7.20;;
36211;SDS011;22247;48.586;13.492;2023-06-26T00:19:19;12.23;;;7.32;;
36211;SDS011;22247;48.586;13.492;2023-06-26T00:24:12;11.40;;;7.18;;
36211;SDS011;22247;48.586;13.492;2023-06-26T00:26:37;16.92;;;6.68;;
36211;SDS011;22247;48.586;13.492;2023-06-26T00:31:26;11.50;;;7.57;;
36211;SDS011;22247;48.586;13.492;2023-06-26T00:33:51;13.30;;;8.00;;
36211;SDS011;22247;48.586;13.492;2023-06-26T00:36:19;11.23;;;7.82;;
36211;SDS011;22247;48.586;13.492;2023-06-26T00:38:49;13.48;;;7.75;;
36211;SDS011;22247;48.586;13.492;2023-06-26T00:41:14;12.07;;;7.13;;
36211;SDS011;22247;48.586;13.492;2023-06-26T00:43:39;14.00;;;7.93;;
36211;SDS011;22247;48.586;13.492;2023-06-26T00:46:04;17.85;;;7.68;;
36211;SDS011;22247;48.586;13.492;2023-06-26T00:48:29;12.40;;;7.47;;
36211;SDS011;22247;48.586;13.492;2023-06-26T00:50:55;11.60;;;7.65;;
36211;SDS011;22247;48.586;13.492;2023-06-26T00:55:45;12.20;;;6.87;;
36211;SDS011;22247;48.586;13.492;2023-06-26T00:58:10;14.20;;;7.38;;
36211;SDS011;22247;48.586;13.492;2023-06-26T01:00:40;10.68;;;7.18;;
36211;SDS011;22247;48.586;13.492;2023-06-26T01:03:05;11.48;;;7.70;;
36211;SDS011;22247;48.586;13.492;2023-06-26T01:07:56;11.97;;;8.00;;
36211;SDS011;22247;48.586;13.492;2023-06-26T01:10:24;12.43;;;7.50;;
36211;SDS011;22247;48.586;13.492;2023-06-26T01:12:51;10.57;;;7.25;;
36211;SDS011;22247;48.586;13.492;2023-06-26T01:17:43;14.95;;;8.68;;
36211;SDS011;22247;48.586;13.492;2023-06-26T01:20:09;11.93;;;7.80;;
36211;SDS011;22247;48.586;13.492;2023-06-26T01:22:45;11.18;;;7.40;;
36211;SDS011;22247;48.586;13.492;2023-06-26T01:25:14;14.82;;;8.10;;
36211;SDS011;22247;48.586;13.492;2023-06-26T01:27:42;11.60;;;7.13;;
36211;SDS011;22247;48.586;13.492;2023-06-26T01:30:08;16.27;;;7.55;;
36211;SDS011;22247;48.586;13.492;2023-06-26T01:32:36;12.23;;;7.78;;
36211;SDS011;22247;48.586;13.492;2023-06-26T01:35:01;12.63;;;7.95;;
36211;SDS011;22247;48.586;13.492;2023-06-26T01:37:27;13.52;;;8.30;;
36211;SDS011;22247;48.586;13.492;2023-06-26T01:42:17;11.73;;;7.63;;
36211;SDS011;22247;48.586;13.492;2023-06-26T01:47:07;11.70;;;7.93;;
36211;SDS011;22247;48.586;13.492;2023-06-26T01:49:49;12.77;;;8.32;;
36211;SDS011;22247;48.586;13.492;2023-06-26T01:52:29;11.90;;;7.43;;
36211;SDS011;22247;48.586;13.492;2023-06-26T01:54:58;13.57;;;8.07;;
36211;SDS011;22247;48.586;13.492;2023-06-26T01:57:27;13.70;;;7.90;;
36211;SDS011;22247;48.586;13.492;2023-06-26T01:59:52;16.02;;;8.25;;
36211;SDS011;22247;48.586;13.492;2023-06-26T02:02:18;15.80;;;7.80;;
36211;SDS011;22247;48.586;13.492;2023-06-26T02:07:07;12.70;;;7.67;;
36211;SDS011;22247;48.586;13.492;2023-06-26T02:09:33;10.38;;;7.38;;
36211;SDS011;22247;48.586;13.492;2023-06-26T02:14:23;12.10;;;7.90;;
36211;SDS011;22247;48.586;13.492;2023-06-26T02:19:13;10.90;;;7.17;;
36211;SDS011;22247;48.586;13.492;2023-06-26T02:21:45;13.82;;;7.72;;
36211;SDS011;22247;48.586;13.492;2023-06-26T02:24:12;12.27;;;7.50;;
36211;SDS011;22247;48.586;13.492;2023-06-26T02:29:02;13.07;;;7.80;;
36211;SDS011;22247;48.586;13.492;2023-06-26T02:33:52;12.70;;;7.97;;
36211;SDS011;22247;48.586;13.492;2023-06-26T02:38:42;10.20;;;7.22;;
36211;SDS011;22247;48.586;13.492;2023-06-26T02:43:34;12.80;;;7.72;;
36211;SDS011;22247;48.586;13.492;2023-06-26T02:48:24;12.75;;;7.95;;
36211;SDS011;22247;48.586;13.492;2023-06-26T02:53:14;12.95;;;7.80;;
36211;SDS011;22247;48.586;13.492;2023-06-26T02:55:40;12.80;;;8.23;;
36211;SDS011;22247;48.586;13.492;2023-06-26T03:00:30;14.25;;;7.82;;
36211;SDS011;22247;48.586;13.492;2023-06-26T03:05:23;13.95;;;8.38;;
36211;SDS011;22247;48.586;13.492;2023-06-26T03:07:48;10.70;;;7.57;;
36211;SDS011;22247;48.586;13.492;2023-06-26T03:12:38;14.53;;;8.13;;
36211;SDS011;22247;48.586;13.492;2023-06-26T03:17:28;13.23;;;7.60;;
36211;SDS011;22247;48.586;13.492;2023-06-26T03:22:18;14.80;;;8.90;;
36211;SDS011;22247;48.586;13.492;2023-06-26T03:27:08;16.23;;;9.60;;
36211;SDS011;22247;48.586;13.492;2023-06-26T03:29:33;15.38;;;8.35;;
36211;SDS011;22247;48.586;13.492;2023-06-26T03:34:25;13.43;;;8.88;;
36211;SDS011;22247;48.586;13.492;2023-06-26T03:39:15;12.95;;;8.20;;
36211;SDS011;22247;48.586;13.492;2023-06-26T03:44:07;13.80;;;8.18;;
36211;SDS011;22247;48.586;13.492;2023-06-26T03:48:57;15.30;;;7.78;;
36211;SDS011;22247;48.586;13.492;2023-06-26T03:53:47;15.55;;;7.55;;
36211;SDS011;22247;48.586;13.492;2023-06-26T03:58:39;12.82;;;7.90;;
36211;SDS011;22247;48.586;13.492;2023-06-26T04:03:30;12.77;;;8.27;;
36211;SDS011;22247;48.586;13.492;2023-06-26T04:05:55;13.95;;;8.48;;
36211;SDS011;22247;48.586;13.492;2023-06-26T04:10:45;14.90;;;7.95;;
36211;SDS011;22247;48.586;13.492;2023-06-26T04:13:11;17.95;;;9.13;;
36211;SDS011;22247;48.586;13.492;2023-06-26T04:15:37;13.35;;;9.32;;
36211;SDS011;22247;48.586;13.492;2023-06-26T04:20:27;14.27;;;8.87;;
36211;SDS011;22247;48.586;13.492;2023-06-26T04:22:55;13.93;;;8.25;;
36211;SDS011;22247;48.586;13.492;2023-06-26T04:27:44;13.57;;;8.52;;
36211;SDS011;22247;48.586;13.492;2023-06-26T04:32:37;13.50;;;9.10;;
36211;SDS011;22247;48.586;13.492;2023-06-26T04:37:29;12.13;;;8.55;;
36211;SDS011;22247;48.586;13.492;2023-06-26T04:42:19;13.33;;;8.83;;
36211;SDS011;22247;48.586;13.492;2023-06-26T04:44:48;17.67;;;9.02;;
36211;SDS011;22247;48.586;13.492;2023-06-26T04:47:18;11.90;;;8.57;;
36211;SDS011;22247;48.586;13.492;2023-06-26T04:49:44;14.45;;;8.60;;
36211;SDS011;22247;48.586;13.492;2023-06-26T04:58:18;13.23;;;8.15;;
36211;SDS011;22247;48.586;13.492;2023-06-26T05:03:30;14.25;;;9.07;;
36211;SDS011;22247;48.586;13.492;2023-06-26T05:05:55;13.18;;;8.63;;
36211;SDS011;22247;48.586;13.492;2023-06-26T05:08:38;14.80;;;7.68;;
36211;SDS011;22247;48.586;13.492;2023-06-26T05:11:22;12.75;;;7.78;;
36211;SDS011;22247;48.586;13.492;2023-06-26T05:14:07;12.63;;;8.32;;
36211;SDS011;22247;48.586;13.492;2023-06-26T05:16:33;11.35;;;7.32;;
36211;SDS011;22247;48.586;13.492;2023-06-26T05:18:58;11.05;;;6.95;;
36211;SDS011;22247;48.586;13.492;2023-06-26T05:21:35;13.95;;;7.50;;
36211;SDS011;22247;48.586;13.492;2023-06-26T05:24:03;11.32;;;7.85;;
36211;SDS011;22247;48.586;13.492;2023-06-26T05:26:29;9.88;;;7.05;;
36211;SDS011;22247;48.586;13.492;2023-06-26T05:28:54;10.07;;;7.03;;
36211;SDS011;22247;48.586;13.492;2023-06-26T05:31:20;10.10;;;7.35;;
36211;SDS011;22247;48.586;13.492;2023-06-26T05:33:48;10.65;;;7.45;;
36211;SDS011;22247;48.586;13.492;2023-06-26T05:36:17;10.98;;;7.40;;
36211;SDS011;22247;48.586;13.492;2023-06-26T05:39:03;10.20;;;7.20;;
36211;SDS011;22247;48.586;13.492;2023-06-26T05:41:34;10.18;;;7.40;;
36211;SDS011;22247;48.586;13.492;2023-06-26T05:44:08;12.45;;;7.45;;
36211;SDS011;22247;48.586;13.492;2023-06-26T05:46:32;11.05;;;7.75;;
36211;SDS011;22247;48.586;13.492;2023-06-26T05:48:57;11.98;;;8.27;;
36211;SDS011;22247;48.586;13.492;2023-06-26T05:51:25;12.57;;;7.38;;
36211;SDS011;22247;48.586;13.492;2023-06-26T05:53:50;14.18;;;9.05;;
36211;SDS011;22247;48.586;13.492;2023-06-26T05:56:15;13.43;;;8.55;;
36211;SDS011;22247;48.586;13.492;2023-06-26T05:58:39;12.93;;;8.32;;
36211;SDS011;22247;48.586;13.492;2023-06-26T06:01:07;12.45;;;8.18;;
36211;SDS011;22247;48.586;13.492;2023-06-26T06:03:31;13.20;;;7.68;;
36211;SDS011;22247;48.586;13.492;2023-06-26T06:05:56;10.63;;;7.97;;
36211;SDS011;22247;48.586;13.492;2023-06-26T06:08:23;10.82;;;7.55;;
36211;SDS011;22247;48.586;13.492;2023-06-26T06:10:48;12.27;;;7.68;;
36211;SDS011;22247;48.586;13.492;2023-06-26T06:13:13;14.27;;;8.27;;
36211;SDS011;22247;48.586;13.492;2023-06-26T06:15:42;14.50;;;8.43;;
36211;SDS011;22247;48.586;13.492;2023-06-26T06:18:07;12.80;;;7.60;;
36211;SDS011;22247;48.586;13.492;2023-06-26T06:20:32;17.15;;;7.82;;
36211;SDS011;22247;48.586;13.492;2023-06-26T06:22:59;16.67;;;8.43;;
36211;SDS011;22247;48.586;13.492;2023-06-26T06:25:24;13.27;;;7.75;;
36211;SDS011;22247;48.586;13.492;2023-06-26T06:27:48;9.55;;;7.18;;
36211;SDS011;22247;48.586;13.492;2023-06-26T06:30:13;12.98;;;7.35;;
36211;SDS011;22247;48.586;13.492;2023-06-26T06:32:41;16.73;;;7.50;;
36211;SDS011;22247;48.586;13.492;2023-06-26T06:35:05;13.65;;;6.97;;
36211;SDS011;22247;48.586;13.492;2023-06-26T06:37:45;17.58;;;7.47;;
36211;SDS011;22247;48.586;13.492;2023-06-26T06:40:30;15.70;;;7.53;;
36211;SDS011;22247;48.586;13.492;2023-06-26T06:43:13;14.13;;;7.60;;
36211;SDS011;22247;48.586;13.492;2023-06-26T06:49:00;11.82;;;7.65;;
36211;SDS011;22247;48.586;13.492;2023-06-26T06:57:41;15.60;;;8.65;;
36211;SDS011;22247;48.586;13.492;2023-06-26T07:00:09;14.48;;;8.75;;
36211;SDS011;22247;48.586;13.492;2023-06-26T07:02:41;14.20;;;8.73;;
36211;SDS011;22247;48.586;13.492;2023-06-26T07:05:12;12.02;;;8.55;;
36211;SDS011;22247;48.586;13.492;2023-06-26T07:07:37;13.63;;;8.63;;
36211;SDS011;22247;48.586;13.492;2023-06-26T07:24:02;15.95;;;8.48;;
36211;SDS011;22247;48.586;13.492;2023-06-26T07:26:27;14.10;;;8.70;;
36211;SDS011;22247;48.586;13.492;2023-06-26T07:29:09;11.70;;;8.05;;
36211;SDS011;22247;48.586;13.492;2023-06-26T07:31:53;14.05;;;8.40;;
36211;SDS011;22247;48.586;13.492;2023-06-26T07:37:20;12.25;;;8.55;;
36211;SDS011;22247;48.586;13.492;2023-06-26T07:46:06;12.43;;;8.30;;
36211;SDS011;22247;48.586;13.492;2023-06-26T07:48:33;14.02;;;9.18;;
36211;SDS011;22247;48.586;13.492;2023-06-26T07:50:58;14.27;;;9.38;;
36211;SDS011;22247;48.586;13.492;2023-06-26T07:53:26;14.80;;;8.73;;
36211;SDS011;22247;48.586;13.492;2023-06-26T07:55:51;10.82;;;7.88;;
36211;SDS011;22247;48.586;13.492;2023-06-26T07:58:16;11.35;;;7.45;;
36211;SDS011;22247;48.586;13.492;2023-06-26T08:00:42;11.60;;;7.90;;
36211;SDS011;22247;48.586;13.492;2023-06-26T08:03:07;12.48;;;7.50;;
36211;SDS011;22247;48.586;13.492;2023-06-26T08:05:32;10.88;;;7.30;;
36211;SDS011;22247;48.586;13.492;2023-06-26T08:07:57;11.23;;;6.95;;
36211;SDS011;22247;48.586;13.492;2023-06-26T08:10:24;14.88;;;8.20;;
36211;SDS011;22247;48.586;13.492;2023-06-26T08:12:48;13.07;;;7.55;;
36211;SDS011;22247;48.586;13.492;2023-06-26T08:15:18;12.90;;;7.82;;
36211;SDS011;22247;48.586;13.492;2023-06-26T08:17:43;10.98;;;7.60;;
36211;SDS011;22247;48.586;13.492;2023-06-26T08:20:09;11.38;;;7.35;;
36211;SDS011;22247;48.586;13.492;2023-06-26T08:22:34;9.35;;;7.65;;
36211;SDS011;22247;48.586;13.492;2023-06-26T08:25:00;15.23;;;7.55;;
36211;SDS011;22247;48.586;13.492;2023-06-26T08:27:25;10.55;;;7.68;;
36211;SDS011;22247;48.586;13.492;2023-06-26T08:29:50;9.30;;;7.20;;
36211;SDS011;22247;48.586;13.492;2023-06-26T08:32:18;11.82;;;7.90;;
36211;SDS011;22247;48.586;13.492;2023-06-26T08:34:43;10.27;;;8.10;;
36211;SDS011;22247;48.586;13.492;2023-06-26T08:37:08;9.10;;;7.13;;
36211;SDS011;22247;48.586;13.492;2023-06-26T08:39:33;11.73;;;8.07;;
36211;SDS011;22247;48.586;13.492;2023-06-26T08:41:58;12.18;;;7.38;;
36211;SDS011;22247;48.586;13.492;2023-06-26T08:44:23;11.25;;;7.75;;
36211;SDS011;22247;48.586;13.492;2023-06-26T08:46:48;8.80;;;6.80;;
36211;SDS011;22247;48.586;13.492;2023-06-26T08:49:14;9.93;;;7.20;;
36211;SDS011;22247;48.586;13.492;2023-06-26T08:51:45;9.57;;;7.18;;
36211;SDS011;22247;48.586;13.492;2023-06-26T08:54:17;10.07;;;7.28;;
36211;SDS011;22247;48.586;13.492;2023-06-26T08:56:46;11.35;;;7.03;;
36211;SDS011;22247;48.586;13.492;2023-06-26T08:59:13;10.07;;;7.47;;
36211;SDS011;22247;48.586;13.492;2023-06-26T09:01:38;12.25;;;6.97;;
36211;SDS011;22247;48.586;13.492;2023-06-26T09:04:04;14.15;;;7.78;;
36211;SDS011;22247;48.586;13.492;2023-06-26T09:06:29;10.55;;;7.38;;
36211;SDS011;22247;48.586;13.492;2023-06-26T09:08:54;11.05;;;7.57;;
36211;SDS011;22247;48.586;13.492;2023-06-26T09:11:19;12.70;;;7.80;;
36211;SDS011;22247;48.586;13.492;2023-06-26T09:13:44;12.38;;;8.20;;
36211;SDS011;22247;48.586;13.492;2023-06-26T09:16:11;11.15;;;7.20;;
36211;SDS011;22247;48.586;13.492;2023-06-26T09:18:36;10.73;;;7.18;;
36211;SDS011;22247;48.586;13.492;2023-06-26T09:21:06;11.38;;;7.93;;
36211;SDS011;22247;48.586;13.492;2023-06-26T09:23:32;10.00;;;7.78;;
36211;SDS011;22247;48.586;13.492;2023-06-26T09:25:57;14.20;;;7.93;;
36211;SDS011;22247;48.586;13.492;2023-06-26T09:28:22;9.07;;;7.72;;
36211;SDS011;22247;48.586;13.492;2023-06-26T09:30:47;11.10;;;7.20;;
36211;SDS011;22247;48.586;13.492;2023-06-26T09:33:18;11.73;;;7.47;;
36211;SDS011;22247;48.586;13.492;2023-06-26T09:35:44;9.88;;;7.35;;
36211;SDS011;22247;48.586;13.492;2023-06-26T09:38:12;10.95;;;7.07;;
36211;SDS011;22247;48.586;13.492;2023-06-26T09:40:39;10.43;;;6.45;;
36211;SDS011;22247;48.586;13.492;2023-06-26T09:43:04;9.95;;;7.68;;
36211;SDS011;22247;48.586;13.492;2023-06-26T09:45:30;8.77;;;7.05;;
36211;SDS011;22247;48.586;13.492;2023-06-26T09:48:03;8.50;;;6.72;;
36211;SDS011;22247;48.586;13.492;2023-06-26T09:50:28;11.65;;;6.45;;
36211;SDS011;22247;48.586;13.492;2023-06-26T09:52:57;9.23;;;7.50;;
36211;SDS011;22247;48.586;13.492;2023-06-26T09:55:22;10.73;;;7.53;;
36211;SDS011;22247;48.586;13.492;2023-06-26T10:00:33;15.07;;;7.20;;
36211;SDS011;22247;48.586;13.492;2023-06-26T10:02:58;10.07;;;6.60;;
36211;SDS011;22247;48.586;13.492;2023-06-26T10:05:23;16.33;;;6.70;;
36211;SDS011;22247;48.586;13.492;2023-06-26T10:07:48;9.75;;;6.68;;
36211;SDS011;22247;48.586;13.492;2023-06-26T10:10:15;17.13;;;6.97;;
36211;SDS011;22247;48.586;13.492;2023-06-26T10:12:41;9.38;;;7.15;;
36211;SDS011;22247;48.586;13.492;2023-06-26T10:15:07;11.35;;;6.90;;
36211;SDS011;22247;48.586;13.492;2023-06-26T10:17:36;9.93;;;6.75;;
36211;SDS011;22247;48.586;13.492;2023-06-26T10:20:05;11.77;;;6.88;;
36211;SDS011;22247;48.586;13.492;2023-06-26T10:22:36;11.02;;;6.95;;
36211;SDS011;22247;48.586;13.492;2023-06-26T10:25:01;6.88;;;5.95;;
36211;SDS011;22247;48.586;13.492;2023-06-26T10:27:30;6.78;;;5.20;;
36211;SDS011;22247;48.586;13.492;2023-06-26T10:30:09;8.13;;;6.13;;
36211;SDS011;22247;48.586;13.492;2023-06-26T10:32:35;8.80;;;5.88;;
36211;SDS011;22247;48.586;13.492;2023-06-26T10:35:01;9.23;;;6.60;;
36211;SDS011;22247;48.586;13.492;2023-06-26T10:40:11;9.98;;;6.50;;
36211;SDS011;22247;48.586;13.492;2023-06-26T10:42:37;9.85;;;7.15;;
36211;SDS011;22247;48.586;13.492;2023-06-26T10:45:16;9.20;;;6.85;;
36211;SDS011;22247;48.586;13.492;2023-06-26T10:47:45;11.82;;;6.70;;
36211;SDS011;22247;48.586;13.492;2023-06-26T10:52:45;12.50;;;6.53;;
36211;SDS011;22247;48.586;13.492;2023-06-26T10:55:30;9.30;;;6.70;;
36211;SDS011;22247;48.586;13.492;2023-06-26T10:57:54;10.68;;;6.45;;
36211;SDS011;22247;48.586;13.492;2023-06-26T11:00:19;10.18;;;6.70;;
36211;SDS011;22247;48.586;13.492;2023-06-26T11:02:47;12.38;;;6.68;;
36211;SDS011;22247;48.586;13.492;2023-06-26T11:05:49;7.50;;;6.05;;
36211;SDS011;22247;48.586;13.492;2023-06-26T11:10:52;8.25;;;5.88;;
36211;SDS011;22247;48.586;13.492;2023-06-26T11:13:20;8.45;;;6.18;;
36211;SDS011;22247;48.586;13.492;2023-06-26T11:15:45;15.13;;;6.55;;
36211;SDS011;22247;48.586;13.492;2023-06-26T11:18:12;10.68;;;6.30;;
36211;SDS011;22247;48.586;13.492;2023-06-26T11:20:38;11.65;;;6.22;;
36211;SDS011;22247;48.586;13.492;2023-06-26T11:23:05;12.20;;;6.18;;
36211;SDS011;22247;48.586;13.492;2023-06-26T11:25:36;10.40;;;6.10;;
36211;SDS011;22247;48.586;13.492;2023-06-26T11:28:09;10.25;;;5.80;;
36211;SDS011;22247;48.586;13.492;2023-06-26T11:30:48;10.40;;;6.15;;
36211;SDS011;22247;48.586;13.492;2023-06-26T11:33:12;9.65;;;5.35;;
36211;SDS011;22247;48.586;13.492;2023-06-26T11:35:37;7.55;;;6.22;;
36211;SDS011;22247;48.586;13.492;2023-06-26T11:38:03;7.45;;;5.65;;
36211;SDS011;22247;48.586;13.492;2023-06-26T11:40:29;7.43;;;5.85;;
36211;SDS011;22247;48.586;13.492;2023-06-26T11:42:55;6.68;;;5.30;;
36211;SDS011;22247;48.586;13.492;2023-06-26T11:45:22;10.85;;;5.47;;
36211;SDS011;22247;48.586;13.492;2023-06-26T11:47:47;12.23;;;5.22;;
36211;SDS011;22247;48.586;13.492;2023-06-26T11:52:52;7.18;;;5.75;;
36211;SDS011;22247;48.586;13.492;2023-06-26T11:55:23;10.50;;;5.75;;
36211;SDS011;22247;48.586;13.492;2023-06-26T11:58:01;8.38;;;5.90;;
36211;SDS011;22247;48.586;13.492;2023-06-26T12:00:26;6.70;;;5.25;;
36211;SDS011;22247;48.586;13.492;2023-06-26T12:02:55;8.55;;;5.38;;
36211;SDS011;22247;48.586;13.492;2023-06-26T12:05:21;10.40;;;5.50;;
36211;SDS011;22247;48.586;13.492;2023-06-26T12:07:46;10.18;;;5.70;;
36211;SDS011;22247;48.586;13.492;2023-06-26T12:10:13;11.20;;;5.88;;
36211;SDS011;22247;48.586;13.492;2023-06-26T12:12:39;10.60;;;5.88;;
36211;SDS011;22247;48.586;13.492;2023-06-26T12:15:15;8.27;;;6.10;;
36211;SDS011;22247;48.586;13.492;2023-06-26T12:17:43;9.05;;;5.68;;
36211;SDS011;22247;48.586;13.492;2023-06-26T12:20:20;11.98;;;6.05;;
36211;SDS011;22247;48.586;13.492;2023-06-26T12:22:49;8.48;;;5.72;;
36211;SDS011;22247;48.586;13.492;2023-06-26T12:25:14;8.43;;;6.22;;
36211;SDS011;22247;48.586;13.492;2023-06-26T12:27:44;7.90;;;5.70;;
36211;SDS011;22247;48.586;13.492;2023-06-26T12:30:10;7.60;;;5.95;;
36211;SDS011;22247;48.586;13.492;2023-06-26T12:32:35;8.10;;;5.28;;
36211;SDS011;22247;48.586;13.492;2023-06-26T12:34:59;8.30;;;5.82;;
36211;SDS011;22247;48.586;13.492;2023-06-26T12:37:25;7.28;;;5.68;;
36211;SDS011;22247;48.586;13.492;2023-06-26T12:39:55;8.82;;;5.70;;
36211;SDS011;22247;48.586;13.492;2023-06-26T12:44:47;11.13;;;6.55;;
36211;SDS011;22247;48.586;13.492;2023-06-26T12:47:15;7.82;;;5.63;;
36211;SDS011;22247;48.586;13.492;2023-06-26T12:49:52;12.65;;;6.57;;
36211;SDS011;22247;48.586;13.492;2023-06-26T12:52:17;11.30;;;6.07;;
36211;SDS011;22247;48.586;13.492;2023-06-26T12:54:52;9.13;;;5.68;;
36211;SDS011;22247;48.586;13.492;2023-06-26T12:57:18;7.75;;;5.30;;
36211;SDS011;22247;48.586;13.492;2023-06-26T12:59:43;7.65;;;5.43;;
36211;SDS011;22247;48.586;13.492;2023-06-26T13:02:08;10.90;;;5.82;;
36211;SDS011;22247;48.586;13.492;2023-06-26T13:04:35;7.97;;;6.03;;
36211;SDS011;22247;48.586;13.492;2023-06-26T13:07:00;6.60;;;5.45;;
36211;SDS011;22247;48.586;13.492;2023-06-26T13:09:25;8.05;;;6.15;;
36211;SDS011;22247;48.586;13.492;2023-06-26T13:11:51;8.15;;;6.15;;
36211;SDS011;22247;48.586;13.492;2023-06-26T13:14:18;8.30;;;5.80;;
36211;SDS011;22247;48.586;13.492;2023-06-26T13:16:42;11.70;;;6.30;;
36211;SDS011;22247;48.586;13.492;2023-06-26T13:19:07;7.30;;;5.15;;
36211;SDS011;22247;48.586;13.492;2023-06-26T13:21:32;10.70;;;5.70;;
36211;SDS011;22247;48.586;13.492;2023-06-26T13:23:58;6.20;;;5.20;;
36211;SDS011;22247;48.586;13.492;2023-06-26T13:26:23;9.75;;;5.53;;
36211;SDS011;22247;48.586;13.492;2023-06-26T13:28:52;8.93;;;6.10;;
36211;SDS011;22247;48.586;13.492;2023-06-26T13:31:19;7.40;;;5.57;;
36211;SDS011;22247;48.586;13.492;2023-06-26T13:33:44;8.23;;;5.30;;
36211;SDS011;22247;48.586;13.492;2023-06-26T13:36:12;7.68;;;5.63;;
36211;SDS011;22247;48.586;13.492;2023-06-26T13:38:39;7.55;;;5.60;;
36211;SDS011;22247;48.586;13.492;2023-06-26T13:41:07;6.97;;;5.97;;
36211;SDS011;22247;48.586;13.492;2023-06-26T13:43:32;8.00;;;5.72;;
36211;SDS011;22247;48.586;13.492;2023-06-26T13:45:57;7.15;;;5.50;;
36211;SDS011;22247;48.586;13.492;2023-06-26T13:48:22;7.50;;;5.95;;
36211;SDS011;22247;48.586;13.492;2023-06-26T13:50:48;9.15;;;5.28;;
36211;SDS011;22247;48.586;13.492;2023-06-26T13:53:13;7.97;;;5.50;;
36211;SDS011;22247;48.586;13.492;2023-06-26T13:55:39;7.38;;;5.78;;
36211;SDS011;22247;48.586;13.492;2023-06-26T13:58:07;8.85;;;5.63;;
36211;SDS011;22247;48.586;13.492;2023-06-26T14:00:33;8.32;;;6.28;;
36211;SDS011;22247;48.586;13.492;2023-06-26T14:03:05;7.00;;;5.72;;
36211;SDS011;22247;48.586;13.492;2023-06-26T14:05:30;8.48;;;5.45;;
36211;SDS011;22247;48.586;13.492;2023-06-26T14:07:55;7.80;;;5.45;;
36211;SDS011;22247;48.586;13.492;2023-06-26T14:10:21;8.55;;;5.75;;
36211;SDS011;22247;48.586;13.492;2023-06-26T14:12:46;8.23;;;5.25;;
36211;SDS011;22247;48.586;13.492;2023-06-26T14:15:11;9.88;;;5.57;;
36211;SDS011;22247;48.586;13.492;2023-06-26T14:17:36;9.13;;;5.80;;
36211;SDS011;22247;48.586;13.492;2023-06-26T14:20:04;6.70;;;4.95;;
36211;SDS011;22247;48.586;13.492;2023-06-26T14:22:36;8.60;;;5.22;;
36211;SDS011;22247;48.586;13.492;2023-06-26T14:25:01;10.80;;;5.90;;
36211;SDS011;22247;48.586;13.492;2023-06-26T14:27:29;8.07;;;5.47;;
36211;SDS011;22247;48.586;13.492;2023-06-26T14:29:53;11.68;;;5.70;;
36211;SDS011;22247;48.586;13.492;2023-06-26T14:32:20;10.35;;;5.85;;
36211;SDS011;22247;48.586;13.492;2023-06-26T14:34:45;8.75;;;5.28;;
36211;SDS011;22247;48.586;13.492;2023-06-26T14:37:12;6.28;;;5.30;;
36211;SDS011;22247;48.586;13.492;2023-06-26T14:39:37;7.38;;;4.78;;
36211;SDS011;22247;48.586;13.492;2023-06-26T14:42:12;9.00;;;5.57;;
36211;SDS011;22247;48.586;13.492;2023-06-26T14:44:40;9.23;;;5.63;;
36211;SDS011;22247;48.586;13.492;2023-06-26T14:47:04;9.38;;;5.57;;
36211;SDS011;22247;48.586;13.492;2023-06-26T14:49:35;7.20;;;5.72;;
36211;SDS011;22247;48.586;13.492;2023-06-26T14:52:06;8.52;;;5.53;;
36211;SDS011;22247;48.586;13.492;2023-06-26T14:54:36;9.07;;;5.68;;
36211;SDS011;22247;48.586;13.492;2023-06-26T14:57:04;6.70;;;5.65;;
36211;SDS011;22247;48.586;13.492;2023-06-26T14:59:31;8.07;;;5.60;;
36211;SDS011;22247;48.586;13.492;2023-06-26T15:01:55;6.10;;;5.50;;
36211;SDS011;22247;48.586;13.492;2023-06-26T15:04:22;8.25;;;5.75;;
36211;SDS011;22247;48.586;13.492;2023-06-26T15:06:47;7.45;;;5.18;;
36211;SDS011;22247;48.586;13.492;2023-06-26T15:09:14;6.82;;;5.20;;
36211;SDS011;22247;48.586;13.492;2023-06-26T15:11:39;9.20;;;5.68;;
36211;SDS011;22247;48.586;13.492;2023-06-26T15:14:03;10.77;;;5.80;;
36211;SDS011;22247;48.586;13.492;2023-06-26T15:16:28;14.65;;;5.85;;
36211;SDS011;22247;48.586;13.492;2023-06-26T15:18:52;20.63;;;5.60;;
36211;SDS011;22247;48.586;13.492;2023-06-26T15:21:17;7.60;;;5.07;;
36211;SDS011;22247;48.586;13.492;2023-06-26T15:23:42;7.93;;;5.05;;
36211;SDS011;22247;48.586;13.492;2023-06-26T15:26:06;20.75;;;5.25;;
36211;SDS011;22247;48.586;13.492;2023-06-26T15:28:33;8.63;;;5.72;;
36211;SDS011;22247;48.586;13.492;2023-06-26T15:31:00;7.57;;;5.50;;
36211;SDS011;22247;48.586;13.492;2023-06-26T15:33:27;9.20;;;5.10;;
36211;SDS011;22247;48.586;13.492;2023-06-26T15:35:52;7.32;;;5.20;;
36211;SDS011;22247;48.586;13.492;2023-06-26T15:38:17;7.88;;;4.93;;
36211;SDS011;22247;48.586;13.492;2023-06-26T15:40:41;8.95;;;5.38;;
36211;SDS011;22247;48.586;13.492;2023-06-26T15:43:06;10.75;;;5.28;;
36211;SDS011;22247;48.586;13.492;2023-06-26T15:45:30;13.27;;;4.32;;
36211;SDS011;22247;48.586;13.492;2023-06-26T15:47:55;8.07;;;4.95;;
36211;SDS011;22247;48.586;13.492;2023-06-26T15:50:25;5.63;;;4.65;;
36211;SDS011;22247;48.586;13.492;2023-06-26T15:56:18;5.30;;;4.72;;
36211;SDS011;22247;48.586;13.492;2023-06-26T15:58:45;7.53;;;4.80;;
36211;SDS011;22247;48.586;13.492;2023-06-26T16:01:12;4.95;;;4.45;;
36211;SDS011;22247;48.586;13.492;2023-06-26T16:03:37;5.22;;;4.72;;
36211;SDS011;22247;48.586;13.492;2023-06-26T16:06:03;8.55;;;5.25;;
36211;SDS011;22247;48.586;13.492;2023-06-26T16:08:27;4.93;;;4.43;;
36211;SDS011;22247;48.586;13.492;2023-06-26T16:10:52;7.13;;;4.50;;
36211;SDS011;22247;48.586;13.492;2023-06-26T16:13:19;9.63;;;4.80;;
36211;SDS011;22247;48.586;13.492;2023-06-26T16:15:48;7.63;;;4.95;;
36211;SDS011;22247;48.586;13.492;2023-06-26T16:18:12;5.72;;;4.70;;
36211;SDS011;22247;48.586;13.492;2023-06-26T16:20:38;5.07;;;4.45;;
36211;SDS011;22247;48.586;13.492;2023-06-26T16:23:03;5.95;;;4.80;;
36211;SDS011;22247;48.586;13.492;2023-06-26T16:25:27;10.48;;;5.22;;
36211;SDS011;22247;48.586;13.492;2023-06-26T16:27:52;6.40;;;4.85;;
36211;SDS011;22247;48.586;13.492;2023-06-26T16:30:16;5.30;;;4.80;;
36211;SDS011;22247;48.586;13.492;2023-06-26T16:32:41;5.97;;;5.20;;
36211;SDS011;22247;48.586;13.492;2023-06-26T16:35:09;7.97;;;5.03;;
36211;SDS011;22247;48.586;13.492;2023-06-26T16:37:36;5.57;;;5.00;;
36211;SDS011;22247;48.586;13.492;2023-06-26T16:40:01;6.45;;;5.13;;
36211;SDS011;22247;48.586;13.492;2023-06-26T16:42:28;6.45;;;4.90;;
36211;SDS011;22247;48.586;13.492;2023-06-26T16:44:53;7.03;;;5.05;;
36211;SDS011;22247;48.586;13.492;2023-06-26T16:47:19;9.18;;;5.30;;
36211;SDS011;22247;48.586;13.492;2023-06-26T16:49:45;13.55;;;5.43;;
36211;SDS011;22247;48.586;13.492;2023-06-26T16:52:10;7.75;;;5.30;;